sensor_id;sensor_type;location;lat;lon;timestamp;pressure;altitude;pressure_sealevel;temperature;humidity
30744;BME280;17486;46.738;7.622;2023-04-30T00:01:53;95198.19;;;14.49;61.02
30744;BME280;17486;46.738;7.622;2023-04-30T00:04:18;95203.41;;;14.49;60.88
30744;BME280;17486;46.738;7.622;2023-04-30T00:06:43;95198.38;;;14.46;60.87
30744;BME280;17486;46.738;7.622;2023-04-30T00:09:09;95190.94;;;14.39;61.33
30744;BME280;17486;46.738;7.622;2023-04-30T00:11:34;95195.22;;;14.40;61.36
30744;BME280;17486;46.738;7.622;2023-04-30T00:14:00;95191.69;;;14.41;61.19
30744;BME280;17486;46.738;7.622;2023-04-30T00:16:25;95181.44;;;14.38;61.21
30744;BME280;17486;46.738;7.622;2023-04-30T00:18:51;95189.91;;;14.42;61.53
30744;BME280;17486;46.738;7.622;2023-04-30T00:21:16;95191.25;;;14.35;61.62
30744;BME280;17486;46.738;7.622;2023-04-30T00:23:41;95195.63;;;14.34;61.46
30744;BME280;17486;46.738;7.622;2023-04-30T00:26:07;95188.75;;;14.33;61.85
30744;BME280;17486;46.738;7.622;2023-04-30T00:28:32;95187.88;;;14.33;61.95
30744;BME280;17486;46.738;7.622;2023-04-30T00:30:57;95189.56;;;14.34;62.07
30744;BME280;17486;46.738;7.622;2023-04-30T00:33:23;95186.75;;;14.37;62.40
30744;BME280;17486;46.738;7.622;2023-04-30T00:35:48;95187.59;;;14.37;62.20
30744;BME280;17486;46.738;7.622;2023-04-30T00:38:14;95197.84;;;14.40;62.34
30744;BME280;17486;46.738;7.622;2023-04-30T00:40:40;95186.94;;;14.34;62.42
30744;BME280;17486;46.738;7.622;2023-04-30T00:43:08;95193.44;;;14.28;62.63
30744;BME280;17486;46.738;7.622;2023-04-30T00:45:34;95183.47;;;14.20;62.87
30744;BME280;17486;46.738;7.622;2023-04-30T00:47:59;95178.53;;;14.16;63.13
30744;BME280;17486;46.738;7.622;2023-04-30T00:50:25;95164.38;;;14.05;63.21
30744;BME280;17486;46.738;7.622;2023-04-30T00:52:51;95171.72;;;14.13;63.33
30744;BME280;17486;46.738;7.622;2023-04-30T00:55:17;95173.50;;;14.13;63.43
30744;BME280;17486;46.738;7.622;2023-04-30T00:57:42;95152.69;;;14.11;63.17
30744;BME280;17486;46.738;7.622;2023-04-30T01:00:08;95143.88;;;14.12;63.14
30744;BME280;17486;46.738;7.622;2023-04-30T01:02:39;95157.09;;;14.23;63.01
30744;BME280;17486;46.738;7.622;2023-04-30T01:05:05;95161.19;;;14.27;62.95
30744;BME280;17486;46.738;7.622;2023-04-30T01:07:32;95141.81;;;14.17;62.56
30744;BME280;17486;46.738;7.622;2023-04-30T01:09:58;95148.31;;;14.24;62.95
30744;BME280;17486;46.738;7.622;2023-04-30T01:17:39;95150.28;;;14.21;63.26
30744;BME280;17486;46.738;7.622;2023-04-30T01:20:07;95155.63;;;14.19;63.09
30744;BME280;17486;46.738;7.622;2023-04-30T01:22:54;95164.72;;;14.14;63.32
30744;BME280;17486;46.738;7.622;2023-04-30T01:25:34;95153.50;;;14.12;63.04
30744;BME280;17486;46.738;7.622;2023-04-30T01:28:15;95149.97;;;14.13;62.85
30744;BME280;17486;46.738;7.622;2023-04-30T01:30:42;95149.44;;;14.07;62.58
30744;BME280;17486;46.738;7.622;2023-04-30T01:33:12;95146.88;;;13.93;62.73
30744;BME280;17486;46.738;7.622;2023-04-30T01:41:36;95141.00;;;13.89;63.20
30744;BME280;17486;46.738;7.622;2023-04-30T01:49:50;95142.41;;;14.08;63.49
30744;BME280;17486;46.738;7.622;2023-04-30T01:52:44;95147.03;;;14.17;63.15
30744;BME280;17486;46.738;7.622;2023-04-30T01:55:14;95148.53;;;14.21;63.12
30744;BME280;17486;46.738;7.622;2023-04-30T01:58:04;95150.06;;;14.24;62.87
30744;BME280;17486;46.738;7.622;2023-04-30T02:00:29;95145.06;;;14.21;62.36
30744;BME280;17486;46.738;7.622;2023-04-30T02:02:56;95138.91;;;14.22;62.64
30744;BME280;17486;46.738;7.622;2023-04-30T02:05:21;95141.94;;;14.29;62.00
30744;BME280;17486;46.738;7.622;2023-04-30T02:07:48;95145.38;;;14.29;62.67
30744;BME280;17486;46.738;7.622;2023-04-30T02:10:15;95151.59;;;14.28;62.33
30744;BME280;17486;46.738;7.622;2023-04-30T02:12:41;95148.09;;;14.27;62.46
30744;BME280;17486;46.738;7.622;2023-04-30T02:15:07;95141.50;;;14.22;62.20
30744;BME280;17486;46.738;7.622;2023-04-30T02:17:32;95138.91;;;14.22;62.06
30744;BME280;17486;46.738;7.622;2023-04-30T02:19:58;95143.91;;;14.25;62.21
30744;BME280;17486;46.738;7.622;2023-04-30T02:22:24;95137.97;;;14.23;62.14
30744;BME280;17486;46.738;7.622;2023-04-30T02:24:49;95139.63;;;14.24;62.41
30744;BME280;17486;46.738;7.622;2023-04-30T02:27:16;95144.03;;;14.23;62.31
30744;BME280;17486;46.738;7.622;2023-04-30T02:29:42;95144.13;;;14.22;62.32
30744;BME280;17486;46.738;7.622;2023-04-30T02:32:07;95141.63;;;14.20;62.48
30744;BME280;17486;46.738;7.622;2023-04-30T02:34:33;95139.09;;;14.19;62.29
30744;BME280;17486;46.738;7.622;2023-04-30T02:36:58;95141.81;;;14.17;62.29
30744;BME280;17486;46.738;7.622;2023-04-30T02:39:23;95138.34;;;14.17;62.14
30744;BME280;17486;46.738;7.622;2023-04-30T02:41:49;95142.84;;;14.15;62.16
30744;BME280;17486;46.738;7.622;2023-04-30T02:44:14;95145.28;;;14.18;62.11
30744;BME280;17486;46.738;7.622;2023-04-30T02:46:40;95146.09;;;14.18;61.79
30744;BME280;17486;46.738;7.622;2023-04-30T02:49:05;95144.53;;;14.16;61.91
30744;BME280;17486;46.738;7.622;2023-04-30T02:51:31;95142.75;;;14.16;62.15
30744;BME280;17486;46.738;7.622;2023-04-30T02:53:57;95148.81;;;14.17;61.94
30744;BME280;17486;46.738;7.622;2023-04-30T02:56:22;95141.91;;;14.16;62.03
30744;BME280;17486;46.738;7.622;2023-04-30T02:58:48;95143.59;;;14.17;61.85
30744;BME280;17486;46.738;7.622;2023-04-30T03:01:13;95140.97;;;14.17;61.72
30744;BME280;17486;46.738;7.622;2023-04-30T03:03:39;95143.59;;;14.17;61.83
30744;BME280;17486;46.738;7.622;2023-04-30T03:06:05;95134.06;;;14.16;61.71
30744;BME280;17486;46.738;7.622;2023-04-30T03:08:30;95127.34;;;14.12;61.76
30744;BME280;17486;46.738;7.622;2023-04-30T03:10:56;95133.34;;;14.14;61.78
30744;BME280;17486;46.738;7.622;2023-04-30T03:13:21;95132.47;;;14.13;61.75
30744;BME280;17486;46.738;7.622;2023-04-30T03:15:58;95128.72;;;14.04;61.54
30744;BME280;17486;46.738;7.622;2023-04-30T03:18:24;95131.13;;;14.07;61.91
30744;BME280;17486;46.738;7.622;2023-04-30T03:20:49;95135.53;;;14.07;61.88
30744;BME280;17486;46.738;7.622;2023-04-30T03:23:15;95132.03;;;14.06;61.73
30744;BME280;17486;46.738;7.622;2023-04-30T03:25:40;95128.78;;;14.03;61.76
30744;BME280;17486;46.738;7.622;2023-04-30T03:28:06;95128.16;;;13.99;61.93
30744;BME280;17486;46.738;7.622;2023-04-30T03:30:31;95130.97;;;13.96;61.92
30744;BME280;17486;46.738;7.622;2023-04-30T03:32:57;95130.25;;;13.94;61.93
30744;BME280;17486;46.738;7.622;2023-04-30T03:35:22;95119.97;;;13.91;62.33
30744;BME280;17486;46.738;7.622;2023-04-30T03:37:47;95127.63;;;13.94;61.95
30744;BME280;17486;46.738;7.622;2023-04-30T03:40:13;95133.41;;;13.99;61.92
30744;BME280;17486;46.738;7.622;2023-04-30T03:42:38;95125.56;;;13.99;61.88
30744;BME280;17486;46.738;7.622;2023-04-30T03:45:04;95110.38;;;13.91;61.60
30744;BME280;17486;46.738;7.622;2023-04-30T03:47:31;95128.78;;;14.03;61.33
30744;BME280;17486;46.738;7.622;2023-04-30T03:49:57;95127.97;;;14.02;61.11
30744;BME280;17486;46.738;7.622;2023-04-30T03:52:22;95129.66;;;14.03;61.42
30744;BME280;17486;46.738;7.622;2023-04-30T03:54:47;95121.81;;;14.03;61.28
30744;BME280;17486;46.738;7.622;2023-04-30T03:57:13;95125.56;;;13.99;61.39
30744;BME280;17486;46.738;7.622;2023-04-30T03:59:39;95114.63;;;13.92;61.62
30744;BME280;17486;46.738;7.622;2023-04-30T04:02:05;95109.50;;;13.91;61.23
30744;BME280;17486;46.738;7.622;2023-04-30T04:04:32;95120.50;;;13.96;61.72
30744;BME280;17486;46.738;7.622;2023-04-30T04:06:57;95119.88;;;13.92;61.37
30744;BME280;17486;46.738;7.622;2023-04-30T04:09:23;95123.97;;;13.97;61.41
30744;BME280;17486;46.738;7.622;2023-04-30T04:11:48;95127.41;;;13.97;61.49
30744;BME280;17486;46.738;7.622;2023-04-30T04:14:14;95131.91;;;13.95;61.53
30744;BME280;17486;46.738;7.622;2023-04-30T04:16:40;95130.25;;;13.94;61.09
30744;BME280;17486;46.738;7.622;2023-04-30T04:19:06;95131.91;;;13.95;61.22
30744;BME280;17486;46.738;7.622;2023-04-30T04:21:31;95137.34;;;13.92;61.31
30744;BME280;17486;46.738;7.622;2023-04-30T04:23:57;95134.00;;;13.90;61.28
30744;BME280;17486;46.738;7.622;2023-04-30T04:26:23;95134.00;;;13.90;61.20
30744;BME280;17486;46.738;7.622;2023-04-30T04:28:50;95127.19;;;13.87;61.37
30744;BME280;17486;46.738;7.622;2023-04-30T04:31:15;95125.41;;;13.88;61.07
30744;BME280;17486;46.738;7.622;2023-04-30T04:33:41;95125.00;;;13.94;61.23
30744;BME280;17486;46.738;7.622;2023-04-30T04:36:06;95124.06;;;13.95;61.43
30744;BME280;17486;46.738;7.622;2023-04-30T04:38:31;95130.03;;;13.97;61.10
30744;BME280;17486;46.738;7.622;2023-04-30T04:40:57;95125.00;;;13.94;61.16
30744;BME280;17486;46.738;7.622;2023-04-30T04:43:23;95135.47;;;13.94;61.08
30744;BME280;17486;46.738;7.622;2023-04-30T04:45:48;95135.56;;;13.92;61.20
30744;BME280;17486;46.738;7.622;2023-04-30T04:48:14;95137.22;;;13.93;61.09
30744;BME280;17486;46.738;7.622;2023-04-30T04:50:40;95134.81;;;13.90;61.50
30744;BME280;17486;46.738;7.622;2023-04-30T04:53:05;95138.81;;;13.96;61.41
30744;BME280;17486;46.738;7.622;2023-04-30T04:55:30;95139.84;;;13.93;60.91
30744;BME280;17486;46.738;7.622;2023-04-30T04:57:56;95132.94;;;13.92;61.08
30744;BME280;17486;46.738;7.622;2023-04-30T05:00:21;95143.88;;;13.99;60.93
30744;BME280;17486;46.738;7.622;2023-04-30T05:02:47;95142.81;;;14.02;60.74
30744;BME280;17486;46.738;7.622;2023-04-30T05:05:13;95138.41;;;14.02;60.91
30744;BME280;17486;46.738;7.622;2023-04-30T05:07:39;95138.63;;;13.99;60.50
30744;BME280;17486;46.738;7.622;2023-04-30T05:10:05;95139.25;;;14.03;60.84
30744;BME280;17486;46.738;7.622;2023-04-30T05:12:31;95135.81;;;14.02;60.59
30744;BME280;17486;46.738;7.622;2023-04-30T05:14:56;95144.91;;;14.09;60.64
30744;BME280;17486;46.738;7.622;2023-04-30T05:17:22;95151.66;;;14.14;60.49
30744;BME280;17486;46.738;7.622;2023-04-30T05:19:47;95160.22;;;14.16;60.39
30744;BME280;17486;46.738;7.622;2023-04-30T05:22:14;95152.59;;;14.13;60.70
30744;BME280;17486;46.738;7.622;2023-04-30T05:24:40;95155.84;;;14.16;60.65
30744;BME280;17486;46.738;7.622;2023-04-30T05:27:05;95156.47;;;14.20;60.65
30744;BME280;17486;46.738;7.622;2023-04-30T05:29:31;95153.66;;;14.23;60.65
30744;BME280;17486;46.738;7.622;2023-04-30T05:31:56;95146.44;;;14.26;60.28
30744;BME280;17486;46.738;7.622;2023-04-30T05:34:21;95145.38;;;14.29;60.37
30744;BME280;17486;46.738;7.622;2023-04-30T05:36:47;95145.19;;;14.32;60.48
30744;BME280;17486;46.738;7.622;2023-04-30T05:39:13;95152.13;;;14.33;60.08
30744;BME280;17486;46.738;7.622;2023-04-30T05:41:38;95139.97;;;14.32;60.25
30744;BME280;17486;46.738;7.622;2023-04-30T05:44:04;95153.78;;;14.34;60.13
30744;BME280;17486;46.738;7.622;2023-04-30T05:46:29;95148.53;;;14.34;60.21
30744;BME280;17486;46.738;7.622;2023-04-30T05:48:55;95148.97;;;14.28;60.34
30744;BME280;17486;46.738;7.622;2023-04-30T05:51:20;95150.31;;;14.34;60.73
30744;BME280;17486;46.738;7.622;2023-04-30T05:53:46;95156.50;;;14.33;60.42
30744;BME280;17486;46.738;7.622;2023-04-30T05:56:11;95161.72;;;14.33;60.46
30744;BME280;17486;46.738;7.622;2023-04-30T05:58:38;95149.16;;;14.25;60.57
30744;BME280;17486;46.738;7.622;2023-04-30T06:01:03;95155.56;;;14.34;60.23
30744;BME280;17486;46.738;7.622;2023-04-30T06:03:29;95149.50;;;14.33;60.16
30744;BME280;17486;46.738;7.622;2023-04-30T06:05:55;95155.56;;;14.34;60.09
30744;BME280;17486;46.738;7.622;2023-04-30T06:08:20;95160.78;;;14.34;60.03
30744;BME280;17486;46.738;7.622;2023-04-30T06:10:45;95158.19;;;14.34;60.35
30744;BME280;17486;46.738;7.622;2023-04-30T06:13:11;95158.94;;;14.36;60.39
30744;BME280;17486;46.738;7.622;2023-04-30T06:15:37;95156.53;;;14.46;59.89
30744;BME280;17486;46.738;7.622;2023-04-30T06:18:02;95166.69;;;14.50;59.88
30744;BME280;17486;46.738;7.622;2023-04-30T06:20:27;95153.06;;;14.58;59.59
30744;BME280;17486;46.738;7.622;2023-04-30T06:22:53;95152.88;;;14.61;59.52
30744;BME280;17486;46.738;7.622;2023-04-30T06:25:18;95151.53;;;14.68;58.82
30744;BME280;17486;46.738;7.622;2023-04-30T06:27:45;95154.09;;;14.70;58.63
30744;BME280;17486;46.738;7.622;2023-04-30T06:30:10;95148.31;;;14.65;58.13
30744;BME280;17486;46.738;7.622;2023-04-30T06:32:36;95158.00;;;14.63;58.29
30744;BME280;17486;46.738;7.622;2023-04-30T06:35:01;95154.66;;;14.60;58.07
30744;BME280;17486;46.738;7.622;2023-04-30T06:37:27;95153.94;;;14.58;58.29
30744;BME280;17486;46.738;7.622;2023-04-30T06:39:52;95153.06;;;14.58;58.18
30744;BME280;17486;46.738;7.622;2023-04-30T06:42:18;95151.53;;;14.55;58.23
30744;BME280;17486;46.738;7.622;2023-04-30T06:44:43;95160.19;;;14.56;58.47
30744;BME280;17486;46.738;7.622;2023-04-30T06:47:09;95162.19;;;14.52;58.38
30744;BME280;17486;46.738;7.622;2023-04-30T06:49:35;95152.56;;;14.53;58.45
30744;BME280;17486;46.738;7.622;2023-04-30T06:52:00;95151.72;;;14.52;58.37
30744;BME280;17486;46.738;7.622;2023-04-30T06:54:25;95147.41;;;14.51;58.71
30744;BME280;17486;46.738;7.622;2023-04-30T06:56:52;95143.44;;;14.46;58.27
30744;BME280;17486;46.738;7.622;2023-04-30T06:59:17;95148.16;;;14.53;58.64
30744;BME280;17486;46.738;7.622;2023-04-30T07:01:42;95140.31;;;14.53;58.85
30744;BME280;17486;46.738;7.622;2023-04-30T07:04:08;95150.28;;;14.61;58.89
30744;BME280;17486;46.738;7.622;2023-04-30T07:06:33;95152.59;;;14.66;58.84
30744;BME280;17486;46.738;7.622;2023-04-30T07:08:59;95138.94;;;14.60;58.71
30744;BME280;17486;46.738;7.622;2023-04-30T07:11:24;95153.00;;;14.72;58.62
30744;BME280;17486;46.738;7.622;2023-04-30T07:13:50;95148.22;;;14.79;59.04
30744;BME280;17486;46.738;7.622;2023-04-30T07:16:15;95142.13;;;14.91;58.90
30744;BME280;17486;46.738;7.622;2023-04-30T07:18:41;95140.69;;;15.00;58.82
30744;BME280;17486;46.738;7.622;2023-04-30T07:21:07;95140.97;;;15.08;58.48
30744;BME280;17486;46.738;7.622;2023-04-30T07:23:33;95148.59;;;15.12;58.09
30744;BME280;17486;46.738;7.622;2023-04-30T07:25:58;95145.91;;;15.13;58.62
30744;BME280;17486;46.738;7.622;2023-04-30T07:28:24;95148.19;;;15.18;58.60
30744;BME280;17486;46.738;7.622;2023-04-30T07:30:49;95141.78;;;15.22;58.12
30744;BME280;17486;46.738;7.622;2023-04-30T07:33:15;95135.22;;;15.16;58.12
30744;BME280;17486;46.738;7.622;2023-04-30T07:35:40;95146.31;;;15.20;58.84
30744;BME280;17486;46.738;7.622;2023-04-30T07:38:06;95140.63;;;15.26;58.55
30744;BME280;17486;46.738;7.622;2023-04-30T07:40:32;95143.75;;;15.31;59.03
30744;BME280;17486;46.738;7.622;2023-04-30T07:42:57;95144.16;;;15.38;58.61
30744;BME280;17486;46.738;7.622;2023-04-30T07:45:23;95142.19;;;15.41;58.83
30744;BME280;17486;46.738;7.622;2023-04-30T07:47:48;95145.13;;;15.50;58.91
30744;BME280;17486;46.738;7.622;2023-04-30T07:50:13;95140.28;;;15.56;58.37
30744;BME280;17486;46.738;7.622;2023-04-30T07:52:40;95137.41;;;15.59;58.39
30744;BME280;17486;46.738;7.622;2023-04-30T07:55:05;95139.50;;;15.67;58.37
30744;BME280;17486;46.738;7.622;2023-04-30T07:57:31;95126.38;;;15.67;57.80
30744;BME280;17486;46.738;7.622;2023-04-30T07:59:56;95134.00;;;15.83;57.50
30744;BME280;17486;46.738;7.622;2023-04-30T08:02:22;95135.25;;;15.90;57.63
30744;BME280;17486;46.738;7.622;2023-04-30T08:04:47;95115.22;;;15.89;57.28
30744;BME280;17486;46.738;7.622;2023-04-30T08:07:13;95118.84;;;16.00;57.18
30744;BME280;17486;46.738;7.622;2023-04-30T08:09:42;95124.84;;;16.13;56.68
30744;BME280;17486;46.738;7.622;2023-04-30T08:12:08;95129.28;;;16.24;56.84
30744;BME280;17486;46.738;7.622;2023-04-30T08:14:33;95124.31;;;16.32;56.85
30744;BME280;17486;46.738;7.622;2023-04-30T08:16:59;95118.84;;;16.35;56.38
30744;BME280;17486;46.738;7.622;2023-04-30T08:19:25;95125.59;;;16.51;56.21
30744;BME280;17486;46.738;7.622;2023-04-30T08:21:51;95114.09;;;16.52;55.83
30744;BME280;17486;46.738;7.622;2023-04-30T08:24:17;95128.69;;;16.67;55.93
30744;BME280;17486;46.738;7.622;2023-04-30T08:26:42;95121.91;;;16.76;55.36
30744;BME280;17486;46.738;7.622;2023-04-30T08:29:07;95121.34;;;16.84;55.19
30744;BME280;17486;46.738;7.622;2023-04-30T08:31:34;95119.19;;;16.89;54.95
30744;BME280;17486;46.738;7.622;2023-04-30T08:33:59;95119.72;;;16.94;54.29
30744;BME280;17486;46.738;7.622;2023-04-30T08:36:25;95121.38;;;16.95;54.04
30744;BME280;17486;46.738;7.622;2023-04-30T08:38:51;95120.03;;;16.89;54.03
30744;BME280;17486;46.738;7.622;2023-04-30T08:41:19;95122.91;;;16.98;54.03
30744;BME280;17486;46.738;7.622;2023-04-30T08:43:47;95117.31;;;17.02;53.83
30744;BME280;17486;46.738;7.622;2023-04-30T08:46:17;95123.19;;;17.06;53.22
30744;BME280;17486;46.738;7.622;2023-04-30T08:48:42;95124.25;;;17.03;53.51
30744;BME280;17486;46.738;7.622;2023-04-30T08:51:08;95131.19;;;17.04;53.41
30744;BME280;17486;46.738;7.622;2023-04-30T08:53:34;95129.88;;;17.10;53.39
30744;BME280;17486;46.738;7.622;2023-04-30T08:56:00;95126.28;;;17.11;53.33
30744;BME280;17486;46.738;7.622;2023-04-30T08:58:27;95129.88;;;17.21;53.23
30744;BME280;17486;46.738;7.622;2023-04-30T09:00:52;95124.38;;;17.36;52.75
30744;BME280;17486;46.738;7.622;2023-04-30T09:03:17;95127.91;;;17.57;52.97
30744;BME280;17486;46.738;7.622;2023-04-30T09:05:43;95126.31;;;17.78;52.36
30744;BME280;17486;46.738;7.622;2023-04-30T09:08:09;95100.72;;;17.80;52.00
30744;BME280;17486;46.738;7.622;2023-04-30T09:10:41;95115.19;;;17.97;51.49
30744;BME280;17486;46.738;7.622;2023-04-30T09:13:07;95113.84;;;18.02;51.03
30744;BME280;17486;46.738;7.622;2023-04-30T09:15:35;95117.31;;;18.03;50.90
30744;BME280;17486;46.738;7.622;2023-04-30T09:18:07;95127.47;;;18.08;50.90
30744;BME280;17486;46.738;7.622;2023-04-30T09:20:33;95112.66;;;18.06;50.58
30744;BME280;17486;46.738;7.622;2023-04-30T09:23:06;95119.81;;;18.04;50.29
30744;BME280;17486;46.738;7.622;2023-04-30T09:25:40;95116.25;;;18.05;50.24
30744;BME280;17486;46.738;7.622;2023-04-30T09:28:10;95115.28;;;18.06;50.20
30744;BME280;17486;46.738;7.622;2023-04-30T09:30:36;95115.03;;;18.10;49.94
30744;BME280;17486;46.738;7.622;2023-04-30T09:33:01;95115.84;;;18.10;49.93
30744;BME280;17486;46.738;7.622;2023-04-30T09:35:29;95117.66;;;18.10;49.95
30744;BME280;17486;46.738;7.622;2023-04-30T09:37:54;95122.78;;;18.11;49.92
30744;BME280;17486;46.738;7.622;2023-04-30T09:40:40;95113.22;;;18.10;49.68
30744;BME280;17486;46.738;7.622;2023-04-30T09:43:07;95118.25;;;18.13;49.41
30744;BME280;17486;46.738;7.622;2023-04-30T09:45:46;95097.19;;;18.13;49.26
30744;BME280;17486;46.738;7.622;2023-04-30T09:48:15;95113.13;;;18.33;49.04
30744;BME280;17486;46.738;7.622;2023-04-30T09:50:41;95114.38;;;18.50;49.32
30744;BME280;17486;46.738;7.622;2023-04-30T09:53:11;95116.28;;;18.69;49.49
30744;BME280;17486;46.738;7.622;2023-04-30T09:55:43;95110.53;;;18.85;49.56
30744;BME280;17486;46.738;7.622;2023-04-30T09:58:10;95111.47;;;18.95;49.29
30744;BME280;17486;46.738;7.622;2023-04-30T10:00:37;95109.59;;;18.86;48.67
30744;BME280;17486;46.738;7.622;2023-04-30T10:03:08;95123.53;;;18.77;49.26
30744;BME280;17486;46.738;7.622;2023-04-30T10:05:45;95107.78;;;18.65;49.28
30744;BME280;17486;46.738;7.622;2023-04-30T10:08:29;95117.06;;;18.60;49.49
30744;BME280;17486;46.738;7.622;2023-04-30T10:11:02;95107.88;;;18.54;49.46
30744;BME280;17486;46.738;7.622;2023-04-30T10:13:31;95103.69;;;18.51;49.63
30744;BME280;17486;46.738;7.622;2023-04-30T10:16:06;95112.44;;;18.52;49.74
30744;BME280;17486;46.738;7.622;2023-04-30T10:18:36;95115.78;;;18.54;49.80
30744;BME280;17486;46.738;7.622;2023-04-30T10:21:06;95108.00;;;18.52;49.96
30744;BME280;17486;46.738;7.622;2023-04-30T10:23:37;95111.94;;;18.58;50.11
30744;BME280;17486;46.738;7.622;2023-04-30T10:26:04;95101.13;;;18.61;50.09
30744;BME280;17486;46.738;7.622;2023-04-30T10:28:31;95102.03;;;18.71;50.17
30744;BME280;17486;46.738;7.622;2023-04-30T10:30:57;95099.03;;;18.86;50.11
30744;BME280;17486;46.738;7.622;2023-04-30T10:33:43;95096.69;;;19.04;49.68
30744;BME280;17486;46.738;7.622;2023-04-30T10:36:20;95096.47;;;19.17;49.18
30744;BME280;17486;46.738;7.622;2023-04-30T10:38:46;95097.19;;;19.29;49.18
30744;BME280;17486;46.738;7.622;2023-04-30T10:41:12;95098.44;;;19.34;48.58
30744;BME280;17486;46.738;7.622;2023-04-30T10:43:37;95092.22;;;19.35;48.04
30744;BME280;17486;46.738;7.622;2023-04-30T10:46:03;95092.22;;;19.35;47.75
30744;BME280;17486;46.738;7.622;2023-04-30T10:48:32;95095.66;;;19.26;47.70
30744;BME280;17486;46.738;7.622;2023-04-30T10:51:00;95092.00;;;19.17;47.53
30744;BME280;17486;46.738;7.622;2023-04-30T10:53:29;95087.25;;;19.11;47.59
30744;BME280;17486;46.738;7.622;2023-04-30T10:55:59;95081.00;;;19.02;47.89
30744;BME280;17486;46.738;7.622;2023-04-30T10:58:45;95082.75;;;18.92;48.10
30744;BME280;17486;46.738;7.622;2023-04-30T11:01:13;95089.13;;;18.89;48.24
30744;BME280;17486;46.738;7.622;2023-04-30T11:03:41;95093.91;;;18.84;47.93
30744;BME280;17486;46.738;7.622;2023-04-30T11:06:11;95079.72;;;18.76;48.17
30744;BME280;17486;46.738;7.622;2023-04-30T11:08:38;95083.75;;;18.80;48.36
30744;BME280;17486;46.738;7.622;2023-04-30T11:11:07;95075.16;;;18.78;48.77
30744;BME280;17486;46.738;7.622;2023-04-30T11:13:46;95075.66;;;18.71;48.74
30744;BME280;17486;46.738;7.622;2023-04-30T11:16:12;95075.66;;;18.71;48.68
30744;BME280;17486;46.738;7.622;2023-04-30T11:18:43;95077.22;;;18.74;48.57
30744;BME280;17486;46.738;7.622;2023-04-30T11:21:09;95080.16;;;18.81;48.46
30744;BME280;17486;46.738;7.622;2023-04-30T11:23:35;95077.81;;;18.87;48.44
30744;BME280;17486;46.738;7.622;2023-04-30T11:26:01;95064.66;;;18.87;48.35
30744;BME280;17486;46.738;7.622;2023-04-30T11:28:28;95067.25;;;18.99;48.28
30744;BME280;17486;46.738;7.622;2023-04-30T11:30:56;95076.56;;;19.03;48.06
30744;BME280;17486;46.738;7.622;2023-04-30T11:33:25;95079.97;;;18.94;47.82
30744;BME280;17486;46.738;7.622;2023-04-30T11:35:51;95084.66;;;18.90;47.81
30744;BME280;17486;46.738;7.622;2023-04-30T11:38:24;95080.72;;;18.84;48.01
30744;BME280;17486;46.738;7.622;2023-04-30T11:40:50;95083.50;;;18.83;48.00
30744;BME280;17486;46.738;7.622;2023-04-30T11:43:23;95072.75;;;18.75;48.01
30744;BME280;17486;46.738;7.622;2023-04-30T11:46:03;95077.34;;;18.72;47.91
30744;BME280;17486;46.738;7.622;2023-04-30T11:48:33;95079.81;;;18.64;48.18
30744;BME280;17486;46.738;7.622;2023-04-30T11:51:02;95083.41;;;18.63;48.49
30744;BME280;17486;46.738;7.622;2023-04-30T11:53:28;95085.59;;;18.58;48.42
30744;BME280;17486;46.738;7.622;2023-04-30T11:55:54;95082.50;;;18.53;48.59
30744;BME280;17486;46.738;7.622;2023-04-30T11:58:20;95085.41;;;18.50;48.60
30744;BME280;17486;46.738;7.622;2023-04-30T12:00:45;95078.69;;;18.46;48.73
30744;BME280;17486;46.738;7.622;2023-04-30T12:03:13;95069.38;;;18.42;48.51
30744;BME280;17486;46.738;7.622;2023-04-30T12:05:39;95080.25;;;18.48;50.37
30744;BME280;17486;46.738;7.622;2023-04-30T12:08:07;95072.56;;;18.56;51.16
30744;BME280;17486;46.738;7.622;2023-04-30T12:10:34;95077.66;;;18.79;50.84
30744;BME280;17486;46.738;7.622;2023-04-30T12:13:00;95083.94;;;18.88;50.27
30744;BME280;17486;46.738;7.622;2023-04-30T12:15:27;95078.06;;;18.96;50.65
30744;BME280;17486;46.738;7.622;2023-04-30T12:17:57;95074.75;;;19.03;50.49
30744;BME280;17486;46.738;7.622;2023-04-30T12:20:25;95082.41;;;19.07;49.77
30744;BME280;17486;46.738;7.622;2023-04-30T12:22:51;95084.75;;;19.10;50.44
30744;BME280;17486;46.738;7.622;2023-04-30T12:25:18;95086.72;;;19.08;49.91
30744;BME280;17486;46.738;7.622;2023-04-30T12:27:45;95091.13;;;19.07;50.13
30744;BME280;17486;46.738;7.622;2023-04-30T12:30:11;95095.84;;;19.03;50.03
30744;BME280;17486;46.738;7.622;2023-04-30T12:32:41;95094.41;;;18.99;49.99
30744;BME280;17486;46.738;7.622;2023-04-30T12:35:08;95097.34;;;18.96;49.62
30744;BME280;17486;46.738;7.622;2023-04-30T12:37:41;95101.34;;;18.91;48.97
30744;BME280;17486;46.738;7.622;2023-04-30T12:40:07;95092.09;;;18.85;48.75
30744;BME280;17486;46.738;7.622;2023-04-30T12:42:34;95092.56;;;18.69;48.90
30744;BME280;17486;46.738;7.622;2023-04-30T12:45:00;95092.53;;;18.59;48.79
30744;BME280;17486;46.738;7.622;2023-04-30T12:47:25;95096.81;;;18.60;48.96
30744;BME280;17486;46.738;7.622;2023-04-30T12:49:51;95098.25;;;18.64;49.29
30744;BME280;17486;46.738;7.622;2023-04-30T12:52:17;95099.53;;;18.70;49.28
30744;BME280;17486;46.738;7.622;2023-04-30T12:54:42;95104.28;;;18.76;49.17
30744;BME280;17486;46.738;7.622;2023-04-30T12:57:10;95103.03;;;18.80;49.08
30744;BME280;17486;46.738;7.622;2023-04-30T12:59:37;95098.34;;;18.84;49.02
30744;BME280;17486;46.738;7.622;2023-04-30T13:02:07;95103.88;;;18.81;49.03
30744;BME280;17486;46.738;7.622;2023-04-30T13:04:33;95102.47;;;18.77;48.91
30744;BME280;17486;46.738;7.622;2023-04-30T13:07:00;95103.97;;;18.69;48.87
30744;BME280;17486;46.738;7.622;2023-04-30T13:09:25;95099.19;;;18.63;48.76
30744;BME280;17486;46.738;7.622;2023-04-30T13:11:50;95103.31;;;18.56;49.26
30744;BME280;17486;46.738;7.622;2023-04-30T13:14:16;95100.22;;;18.51;49.06
30744;BME280;17486;46.738;7.622;2023-04-30T13:16:42;95092.25;;;18.41;49.02